sensor_id;sensor_type;location;lat;lon;timestamp;temperature;humidity
8261;DHT22;64115;50.170;8.242;2024-01-30T00:00:06;6.40;99.90
8261;DHT22;64115;50.170;8.242;2024-01-30T00:02:34;6.30;99.90
8261;DHT22;64115;50.170;8.242;2024-01-30T00:05:01;6.30;99.90
8261;DHT22;64115;50.170;8.242;2024-01-30T00:07:29;6.40;99.90
8261;DHT22;64115;50.170;8.242;2024-01-30T00:09:57;6.40;99.90
8261;DHT22;64115;50.170;8.242;2024-01-30T00:12:24;6.40;99.90
8261;DHT22;64115;50.170;8.242;2024-01-30T00:14:51;6.30;99.90
8261;DHT22;64115;50.170;8.242;2024-01-30T00:17:18;6.40;99.90
8261;DHT22;64115;50.170;8.242;2024-01-30T00:19:46;6.40;99.90
8261;DHT22;64115;50.170;8.242;2024-01-30T00:22:13;6.40;99.90
8261;DHT22;64115;50.170;8.242;2024-01-30T00:24:40;6.40;99.90
8261;DHT22;64115;50.170;8.242;2024-01-30T00:27:08;6.30;99.90
8261;DHT22;64115;50.170;8.242;2024-01-30T00:29:35;6.20;99.90
8261;DHT22;64115;50.170;8.242;2024-01-30T00:32:01;6.20;99.90
8261;DHT22;64115;50.170;8.242;2024-01-30T00:34:28;6.20;99.90
8261;DHT22;64115;50.170;8.242;2024-01-30T00:36:55;6.20;99.90
8261;DHT22;64115;50.170;8.242;2024-01-30T00:39:21;6.20;99.90
8261;DHT22;64115;50.170;8.242;2024-01-30T00:41:48;6.20;99.90
8261;DHT22;64115;50.170;8.242;2024-01-30T00:44:16;6.30;99.90
8261;DHT22;64115;50.170;8.242;2024-01-30T00:46:43;6.30;99.90
8261;DHT22;64115;50.170;8.242;2024-01-30T00:49:10;6.30;99.90
8261;DHT22;64115;50.170;8.242;2024-01-30T00:51:37;6.30;99.90
8261;DHT22;64115;50.170;8.242;2024-01-30T00:54:04;6.20;99.90
8261;DHT22;64115;50.170;8.242;2024-01-30T00:56:31;6.10;99.90
8261;DHT22;64115;50.170;8.242;2024-01-30T00:58:58;6.00;99.90
8261;DHT22;64115;50.170;8.242;2024-01-30T01:01:26;6.00;99.90
8261;DHT22;64115;50.170;8.242;2024-01-30T01:03:53;6.10;99.90
8261;DHT22;64115;50.170;8.242;2024-01-30T01:06:20;6.00;99.90
8261;DHT22;64115;50.170;8.242;2024-01-30T01:08:46;6.00;99.90
8261;DHT22;64115;50.170;8.242;2024-01-30T01:11:15;6.10;99.90
8261;DHT22;64115;50.170;8.242;2024-01-30T01:13:42;6.00;99.90
8261;DHT22;64115;50.170;8.242;2024-01-30T01:16:09;6.00;99.90
8261;DHT22;64115;50.170;8.242;2024-01-30T01:18:37;6.00;99.90
8261;DHT22;64115;50.170;8.242;2024-01-30T01:21:04;5.90;99.90
8261;DHT22;64115;50.170;8.242;2024-01-30T01:23:31;5.90;99.90
8261;DHT22;64115;50.170;8.242;2024-01-30T01:25:58;5.90;99.90
8261;DHT22;64115;50.170;8.242;2024-01-30T01:28:25;6.00;99.90
8261;DHT22;64115;50.170;8.242;2024-01-30T01:30:52;6.00;99.90
8261;DHT22;64115;50.170;8.242;2024-01-30T01:33:19;6.00;99.90
8261;DHT22;64115;50.170;8.242;2024-01-30T01:35:47;6.00;99.90
8261;DHT22;64115;50.170;8.242;2024-01-30T01:38:14;6.00;99.90
8261;DHT22;64115;50.170;8.242;2024-01-30T01:40:40;6.00;99.90
8261;DHT22;64115;50.170;8.242;2024-01-30T01:43:11;6.10;99.90
8261;DHT22;64115;50.170;8.242;2024-01-30T01:45:37;6.00;99.90
8261;DHT22;64115;50.170;8.242;2024-01-30T01:48:05;6.00;99.90
8261;DHT22;64115;50.170;8.242;2024-01-30T01:50:33;6.00;99.90
8261;DHT22;64115;50.170;8.242;2024-01-30T01:53:02;6.00;99.90
8261;DHT22;64115;50.170;8.242;2024-01-30T01:55:30;6.00;99.90
8261;DHT22;64115;50.170;8.242;2024-01-30T01:57:57;6.00;99.90
8261;DHT22;64115;50.170;8.242;2024-01-30T02:00:24;6.00;99.90
8261;DHT22;64115;50.170;8.242;2024-01-30T02:02:52;6.00;99.90
8261;DHT22;64115;50.170;8.242;2024-01-30T02:05:19;6.00;99.90
8261;DHT22;64115;50.170;8.242;2024-01-30T02:07:46;6.00;99.90
8261;DHT22;64115;50.170;8.242;2024-01-30T02:10:15;6.00;99.90
8261;DHT22;64115;50.170;8.242;2024-01-30T02:12:42;6.10;99.90
8261;DHT22;64115;50.170;8.242;2024-01-30T02:15:08;6.10;99.90
8261;DHT22;64115;50.170;8.242;2024-01-30T02:17:39;6.10;99.90
8261;DHT22;64115;50.170;8.242;2024-01-30T02:20:07;6.10;99.90
8261;DHT22;64115;50.170;8.242;2024-01-30T02:22:36;6.10;99.90
8261;DHT22;64115;50.170;8.242;2024-01-30T02:25:04;6.10;99.90
8261;DHT22;64115;50.170;8.242;2024-01-30T02:27:31;6.10;99.90
8261;DHT22;64115;50.170;8.242;2024-01-30T02:29:57;6.00;99.90
8261;DHT22;64115;50.170;8.242;2024-01-30T02:32:24;6.00;99.90
8261;DHT22;64115;50.170;8.242;2024-01-30T02:34:51;6.00;99.90
8261;DHT22;64115;50.170;8.242;2024-01-30T02:37:18;6.00;99.90
8261;DHT22;64115;50.170;8.242;2024-01-30T02:39:46;6.00;99.90
8261;DHT22;64115;50.170;8.242;2024-01-30T02:42:12;5.90;99.90
8261;DHT22;64115;50.170;8.242;2024-01-30T02:44:39;5.90;99.90
8261;DHT22;64115;50.170;8.242;2024-01-30T02:47:06;5.90;99.90
8261;DHT22;64115;50.170;8.242;2024-01-30T02:49:34;5.90;99.90
8261;DHT22;64115;50.170;8.242;2024-01-30T02:52:00;5.80;99.90
8261;DHT22;64115;50.170;8.242;2024-01-30T02:54:27;5.80;99.90
8261;DHT22;64115;50.170;8.242;2024-01-30T02:56:57;5.80;99.90
8261;DHT22;64115;50.170;8.242;2024-01-30T02:59:24;5.70;99.90
8261;DHT22;64115;50.170;8.242;2024-01-30T03:01:50;5.80;99.90
8261;DHT22;64115;50.170;8.242;2024-01-30T03:04:17;5.70;99.90
8261;DHT22;64115;50.170;8.242;2024-01-30T03:06:45;5.70;99.90
8261;DHT22;64115;50.170;8.242;2024-01-30T03:09:12;5.70;99.90
8261;DHT22;64115;50.170;8.242;2024-01-30T03:11:38;5.70;99.90
8261;DHT22;64115;50.170;8.242;2024-01-30T03:14:07;5.70;99.90
8261;DHT22;64115;50.170;8.242;2024-01-30T03:16:36;5.60;99.90
8261;DHT22;64115;50.170;8.242;2024-01-30T03:19:03;5.70;99.90
8261;DHT22;64115;50.170;8.242;2024-01-30T03:21:30;5.70;99.90
8261;DHT22;64115;50.170;8.242;2024-01-30T03:23:57;5.70;99.90
8261;DHT22;64115;50.170;8.242;2024-01-30T03:26:24;5.70;99.90
8261;DHT22;64115;50.170;8.242;2024-01-30T03:28:51;5.70;99.90
8261;DHT22;64115;50.170;8.242;2024-01-30T03:31:19;5.60;99.90
8261;DHT22;64115;50.170;8.242;2024-01-30T03:33:46;5.70;99.90
8261;DHT22;64115;50.170;8.242;2024-01-30T03:36:14;5.70;99.90
8261;DHT22;64115;50.170;8.242;2024-01-30T03:38:41;5.60;99.90
8261;DHT22;64115;50.170;8.242;2024-01-30T03:41:08;5.60;99.90
8261;DHT22;64115;50.170;8.242;2024-01-30T03:43:35;5.50;99.90
8261;DHT22;64115;50.170;8.242;2024-01-30T03:46:02;5.60;99.90
8261;DHT22;64115;50.170;8.242;2024-01-30T03:48:31;5.50;99.90
8261;DHT22;64115;50.170;8.242;2024-01-30T03:50:57;5.50;99.90
8261;DHT22;64115;50.170;8.242;2024-01-30T03:53:24;5.50;99.90
8261;DHT22;64115;50.170;8.242;2024-01-30T03:55:51;5.50;99.90
8261;DHT22;64115;50.170;8.242;2024-01-30T03:58:18;5.40;99.90
8261;DHT22;64115;50.170;8.242;2024-01-30T04:00:44;5.40;99.90
8261;DHT22;64115;50.170;8.242;2024-01-30T04:03:15;5.50;99.90
8261;DHT22;64115;50.170;8.242;2024-01-30T04:05:45;5.40;99.90
8261;DHT22;64115;50.170;8.242;2024-01-30T04:08:12;5.40;99.90
8261;DHT22;64115;50.170;8.242;2024-01-30T04:10:40;5.40;99.90
8261;DHT22;64115;50.170;8.242;2024-01-30T04:13:06;5.50;99.90
8261;DHT22;64115;50.170;8.242;2024-01-30T04:15:33;5.40;99.90
8261;DHT22;64115;50.170;8.242;2024-01-30T04:18:00;5.50;99.90
8261;DHT22;64115;50.170;8.242;2024-01-30T04:20:27;5.50;99.90
8261;DHT22;64115;50.170;8.242;2024-01-30T04:22:55;5.50;99.90
8261;DHT22;64115;50.170;8.242;2024-01-30T04:25:22;5.40;99.90
8261;DHT22;64115;50.170;8.242;2024-01-30T04:27:49;5.40;99.90
8261;DHT22;64115;50.170;8.242;2024-01-30T04:30:16;5.50;99.90
8261;DHT22;64115;50.170;8.242;2024-01-30T04:32:43;5.50;99.90
8261;DHT22;64115;50.170;8.242;2024-01-30T04:35:10;5.40;99.90
8261;DHT22;64115;50.170;8.242;2024-01-30T04:37:36;5.40;99.90
8261;DHT22;64115;50.170;8.242;2024-01-30T04:40:06;5.30;99.90
8261;DHT22;64115;50.170;8.242;2024-01-30T04:42:33;5.30;99.90
8261;DHT22;64115;50.170;8.242;2024-01-30T04:45:00;5.30;99.90
8261;DHT22;64115;50.170;8.242;2024-01-30T04:47:27;5.30;99.90
8261;DHT22;64115;50.170;8.242;2024-01-30T04:49:55;5.30;99.90
8261;DHT22;64115;50.170;8.242;2024-01-30T04:52:21;5.30;99.90
8261;DHT22;64115;50.170;8.242;2024-01-30T04:54:48;5.30;99.90
8261;DHT22;64115;50.170;8.242;2024-01-30T04:57:16;5.40;99.90
8261;DHT22;64115;50.170;8.242;2024-01-30T04:59:43;5.40;99.90
8261;DHT22;64115;50.170;8.242;2024-01-30T05:02:10;5.30;99.90
8261;DHT22;64115;50.170;8.242;2024-01-30T05:04:36;5.30;99.90
8261;DHT22;64115;50.170;8.242;2024-01-30T05:07:03;5.40;99.90
8261;DHT22;64115;50.170;8.242;2024-01-30T05:09:30;5.40;99.90
8261;DHT22;64115;50.170;8.242;2024-01-30T05:11:57;5.40;99.90
8261;DHT22;64115;50.170;8.242;2024-01-30T05:14:25;5.40;99.90
8261;DHT22;64115;50.170;8.242;2024-01-30T05:16:52;5.30;99.90
8261;DHT22;64115;50.170;8.242;2024-01-30T05:19:19;5.30;99.90
8261;DHT22;64115;50.170;8.242;2024-01-30T05:21:47;5.30;99.90
8261;DHT22;64115;50.170;8.242;2024-01-30T05:24:13;5.30;99.90
8261;DHT22;64115;50.170;8.242;2024-01-30T05:26:40;5.20;99.90
8261;DHT22;64115;50.170;8.242;2024-01-30T05:29:07;5.20;99.90
8261;DHT22;64115;50.170;8.242;2024-01-30T05:31:35;5.20;99.90
8261;DHT22;64115;50.170;8.242;2024-01-30T05:34:02;5.20;99.90
8261;DHT22;64115;50.170;8.242;2024-01-30T05:36:29;5.20;99.90
8261;DHT22;64115;50.170;8.242;2024-01-30T05:38:56;5.20;99.90
8261;DHT22;64115;50.170;8.242;2024-01-30T05:41:23;5.10;99.90
8261;DHT22;64115;50.170;8.242;2024-01-30T05:43:49;5.20;99.90
8261;DHT22;64115;50.170;8.242;2024-01-30T05:46:16;5.20;99.90
8261;DHT22;64115;50.170;8.242;2024-01-30T05:48:44;5.20;99.90
8261;DHT22;64115;50.170;8.242;2024-01-30T05:51:11;5.30;99.90
8261;DHT22;64115;50.170;8.242;2024-01-30T05:53:38;5.20;99.90
8261;DHT22;64115;50.170;8.242;2024-01-30T05:56:05;5.20;99.90
8261;DHT22;64115;50.170;8.242;2024-01-30T05:58:32;5.20;99.90
8261;DHT22;64115;50.170;8.242;2024-01-30T06:00:59;5.20;99.90
8261;DHT22;64115;50.170;8.242;2024-01-30T06:03:26;5.30;99.90
8261;DHT22;64115;50.170;8.242;2024-01-30T06:05:54;5.20;99.90
8261;DHT22;64115;50.170;8.242;2024-01-30T06:08:21;5.30;99.90
8261;DHT22;64115;50.170;8.242;2024-01-30T06:10:48;5.20;99.90
8261;DHT22;64115;50.170;8.242;2024-01-30T06:13:14;5.20;99.90
8261;DHT22;64115;50.170;8.242;2024-01-30T06:15:41;5.10;99.90
8261;DHT22;64115;50.170;8.242;2024-01-30T06:18:08;5.10;99.90
8261;DHT22;64115;50.170;8.242;2024-01-30T06:20:35;5.10;99.90
8261;DHT22;64115;50.170;8.242;2024-01-30T06:23:04;5.00;99.90
8261;DHT22;64115;50.170;8.242;2024-01-30T06:25:30;5.00;99.90
8261;DHT22;64115;50.170;8.242;2024-01-30T06:27:57;5.00;99.90
8261;DHT22;64115;50.170;8.242;2024-01-30T06:30:24;5.00;99.90
8261;DHT22;64115;50.170;8.242;2024-01-30T06:32:50;5.00;99.90
8261;DHT22;64115;50.170;8.242;2024-01-30T06:35:18;5.10;99.90
8261;DHT22;64115;50.170;8.242;2024-01-30T06:37:44;5.10;99.90
8261;DHT22;64115;50.170;8.242;2024-01-30T06:40:13;5.10;99.90
8261;DHT22;64115;50.170;8.242;2024-01-30T06:42:40;5.10;99.90
8261;DHT22;64115;50.170;8.242;2024-01-30T06:45:07;5.10;99.90
8261;DHT22;64115;50.170;8.242;2024-01-30T06:47:34;5.00;99.90
8261;DHT22;64115;50.170;8.242;2024-01-30T06:50:01;5.00;99.90
8261;DHT22;64115;50.170;8.242;2024-01-30T06:52:29;5.00;99.90
8261;DHT22;64115;50.170;8.242;2024-01-30T06:54:56;5.00;99.90
8261;DHT22;64115;50.170;8.242;2024-01-30T06:57:24;5.10;99.90
8261;DHT22;64115;50.170;8.242;2024-01-30T06:59:52;5.10;99.90
8261;DHT22;64115;50.170;8.242;2024-01-30T07:02:21;5.10;99.90
8261;DHT22;64115;50.170;8.242;2024-01-30T07:04:48;5.30;99.90
8261;DHT22;64115;50.170;8.242;2024-01-30T07:07:15;5.20;99.90
8261;DHT22;64115;50.170;8.242;2024-01-30T07:09:42;5.20;99.90
8261;DHT22;64115;50.170;8.242;2024-01-30T07:12:09;5.20;99.90
8261;DHT22;64115;50.170;8.242;2024-01-30T07:14:37;5.10;99.90
8261;DHT22;64115;50.170;8.242;2024-01-30T07:17:04;5.10;99.90
8261;DHT22;64115;50.170;8.242;2024-01-30T07:19:33;5.10;99.90
8261;DHT22;64115;50.170;8.242;2024-01-30T07:22:00;5.00;99.90
8261;DHT22;64115;50.170;8.242;2024-01-30T07:24:27;5.00;99.90
8261;DHT22;64115;50.170;8.242;2024-01-30T07:26:54;5.00;99.90
8261;DHT22;64115;50.170;8.242;2024-01-30T07:29:21;5.00;99.90
8261;DHT22;64115;50.170;8.242;2024-01-30T07:31:49;5.00;99.90
8261;DHT22;64115;50.170;8.242;2024-01-30T07:34:16;5.00;99.90
8261;DHT22;64115;50.170;8.242;2024-01-30T07:36:44;4.90;99.90
8261;DHT22;64115;50.170;8.242;2024-01-30T07:39:12;4.90;99.90
8261;DHT22;64115;50.170;8.242;2024-01-30T07:41:39;4.90;99.90
8261;DHT22;64115;50.170;8.242;2024-01-30T07:44:06;5.00;99.90
8261;DHT22;64115;50.170;8.242;2024-01-30T07:46:33;5.00;99.90
8261;DHT22;64115;50.170;8.242;2024-01-30T07:49:01;5.00;99.90
8261;DHT22;64115;50.170;8.242;2024-01-30T07:51:28;5.10;99.90
8261;DHT22;64115;50.170;8.242;2024-01-30T07:53:57;5.10;99.90
8261;DHT22;64115;50.170;8.242;2024-01-30T07:56:24;5.10;99.90
8261;DHT22;64115;50.170;8.242;2024-01-30T07:58:51;5.10;99.90
8261;DHT22;64115;50.170;8.242;2024-01-30T08:01:19;5.20;99.90
8261;DHT22;64115;50.170;8.242;2024-01-30T08:03:45;5.20;99.90
8261;DHT22;64115;50.170;8.242;2024-01-30T08:06:14;5.20;99.90
8261;DHT22;64115;50.170;8.242;2024-01-30T08:08:41;5.20;99.90
8261;DHT22;64115;50.170;8.242;2024-01-30T08:11:08;5.20;99.90
8261;DHT22;64115;50.170;8.242;2024-01-30T08:13:34;5.30;99.90
8261;DHT22;64115;50.170;8.242;2024-01-30T08:16:01;5.40;99.90
8261;DHT22;64115;50.170;8.242;2024-01-30T08:18:28;5.40;99.90
8261;DHT22;64115;50.170;8.242;2024-01-30T08:20:55;5.40;99.90
8261;DHT22;64115;50.170;8.242;2024-01-30T08:23:24;5.50;99.90
8261;DHT22;64115;50.170;8.242;2024-01-30T08:25:51;5.60;99.90
8261;DHT22;64115;50.170;8.242;2024-01-30T08:28:18;5.60;99.90
8261;DHT22;64115;50.170;8.242;2024-01-30T08:30:45;5.70;99.90
8261;DHT22;64115;50.170;8.242;2024-01-30T08:33:12;5.80;99.90
8261;DHT22;64115;50.170;8.242;2024-01-30T08:35:39;5.80;99.90
8261;DHT22;64115;50.170;8.242;2024-01-30T08:38:06;5.90;99.90
8261;DHT22;64115;50.170;8.242;2024-01-30T08:40:34;5.90;99.90
8261;DHT22;64115;50.170;8.242;2024-01-30T08:43:01;5.90;99.90
8261;DHT22;64115;50.170;8.242;2024-01-30T08:45:29;6.00;99.90
8261;DHT22;64115;50.170;8.242;2024-01-30T08:47:57;6.00;99.90
8261;DHT22;64115;50.170;8.242;2024-01-30T08:50:24;6.00;99.90
8261;DHT22;64115;50.170;8.242;2024-01-30T08:52:51;6.10;99.90
8261;DHT22;64115;50.170;8.242;2024-01-30T08:55:18;6.20;99.90
8261;DHT22;64115;50.170;8.242;2024-01-30T08:57:47;6.30;99.90
8261;DHT22;64115;50.170;8.242;2024-01-30T09:00:15;6.40;99.90
8261;DHT22;64115;50.170;8.242;2024-01-30T09:02:42;6.50;99.90
8261;DHT22;64115;50.170;8.242;2024-01-30T09:05:09;6.60;99.90
8261;DHT22;64115;50.170;8.242;2024-01-30T09:07:37;6.70;99.90
8261;DHT22;64115;50.170;8.242;2024-01-30T09:10:05;6.80;99.90
8261;DHT22;64115;50.170;8.242;2024-01-30T09:12:32;6.90;99.90
8261;DHT22;64115;50.170;8.242;2024-01-30T09:15:05;6.90;99.90
8261;DHT22;64115;50.170;8.242;2024-01-30T09:17:33;6.90;99.90
8261;DHT22;64115;50.170;8.242;2024-01-30T09:20:00;6.90;99.90
8261;DHT22;64115;50.170;8.242;2024-01-30T09:22:28;6.90;99.90
8261;DHT22;64115;50.170;8.242;2024-01-30T09:24:55;6.90;99.90
8261;DHT22;64115;50.170;8.242;2024-01-30T09:27:22;7.00;99.90
8261;DHT22;64115;50.170;8.242;2024-01-30T09:29:49;7.10;99.90
8261;DHT22;64115;50.170;8.242;2024-01-30T09:32:18;7.20;99.90
8261;DHT22;64115;50.170;8.242;2024-01-30T09:34:45;7.40;99.90
8261;DHT22;64115;50.170;8.242;2024-01-30T09:37:12;7.40;99.90
8261;DHT22;64115;50.170;8.242;2024-01-30T09:39:41;7.50;99.90
8261;DHT22;64115;50.170;8.242;2024-01-30T09:42:20;7.60;99.90
8261;DHT22;64115;50.170;8.242;2024-01-30T09:44:51;7.60;99.90
8261;DHT22;64115;50.170;8.242;2024-01-30T09:47:20;7.60;99.90
8261;DHT22;64115;50.170;8.242;2024-01-30T09:49:48;7.50;99.90
8261;DHT22;64115;50.170;8.242;2024-01-30T09:52:15;7.60;99.90
8261;DHT22;64115;50.170;8.242;2024-01-30T09:54:43;7.60;99.90
8261;DHT22;64115;50.170;8.242;2024-01-30T09:57:11;7.50;99.90
8261;DHT22;64115;50.170;8.242;2024-01-30T09:59:38;7.50;99.90
8261;DHT22;64115;50.170;8.242;2024-01-30T10:02:07;7.60;99.90
8261;DHT22;64115;50.170;8.242;2024-01-30T10:04:35;7.50;99.90
8261;DHT22;64115;50.170;8.242;2024-01-30T10:07:03;7.50;99.90
8261;DHT22;64115;50.170;8.242;2024-01-30T10:09:32;7.50;99.90
8261;DHT22;64115;50.170;8.242;2024-01-30T10:12:00;7.60;99.90
8261;DHT22;64115;50.170;8.242;2024-01-30T10:14:29;7.60;99.90
8261;DHT22;64115;50.170;8.242;2024-01-30T10:16:57;7.60;99.90
8261;DHT22;64115;50.170;8.242;2024-01-30T10:19:25;7.70;99.90
8261;DHT22;64115;50.170;8.242;2024-01-30T10:21:54;7.70;99.90
8261;DHT22;64115;50.170;8.242;2024-01-30T10:24:24;7.80;99.90
8261;DHT22;64115;50.170;8.242;2024-01-30T10:26:51;7.80;99.90
8261;DHT22;64115;50.170;8.242;2024-01-30T10:29:19;7.80;99.90
8261;DHT22;64115;50.170;8.242;2024-01-30T10:31:46;7.80;99.90
8261;DHT22;64115;50.170;8.242;2024-01-30T10:34:13;7.80;99.90
8261;DHT22;64115;50.170;8.242;2024-01-30T10:36:40;7.80;99.90
8261;DHT22;64115;50.170;8.242;2024-01-30T10:39:09;7.80;99.90
8261;DHT22;64115;50.170;8.242;2024-01-30T10:41:43;7.90;99.90
8261;DHT22;64115;50.170;8.242;2024-01-30T10:44:10;7.90;99.90
8261;DHT22;64115;50.170;8.242;2024-01-30T10:46:38;7.90;99.90
8261;DHT22;64115;50.170;8.242;2024-01-30T10:49:05;7.90;99.90
8261;DHT22;64115;50.170;8.242;2024-01-30T10:51:34;8.00;99.90
8261;DHT22;64115;50.170;8.242;2024-01-30T10:54:03;7.90;99.90
8261;DHT22;64115;50.170;8.242;2024-01-30T10:56:34;7.90;99.90
8261;DHT22;64115;50.170;8.242;2024-01-30T10:59:02;8.00;99.90
8261;DHT22;64115;50.170;8.242;2024-01-30T11:01:29;7.90;99.90
8261;DHT22;64115;50.170;8.242;2024-01-30T11:03:57;7.80;99.90
8261;DHT22;64115;50.170;8.242;2024-01-30T11:06:25;7.80;99.90
8261;DHT22;64115;50.170;8.242;2024-01-30T11:09:02;7.80;99.90
8261;DHT22;64115;50.170;8.242;2024-01-30T11:11:50;7.90;99.90
8261;DHT22;64115;50.170;8.242;2024-01-30T11:14:23;7.90;99.90
8261;DHT22;64115;50.170;8.242;2024-01-30T11:16:50;8.00;99.90
8261;DHT22;64115;50.170;8.242;2024-01-30T11:19:22;8.10;99.90
8261;DHT22;64115;50.170;8.242;2024-01-30T11:21:51;8.20;99.90
8261;DHT22;64115;50.170;8.242;2024-01-30T11:24:20;8.20;99.90
8261;DHT22;64115;50.170;8.242;2024-01-30T11:26:49;8.20;99.90
8261;DHT22;64115;50.170;8.242;2024-01-30T11:29:17;8.30;99.90
8261;DHT22;64115;50.170;8.242;2024-01-30T11:31:52;8.50;99.90
8261;DHT22;64115;50.170;8.242;2024-01-30T11:34:20;8.60;99.90
8261;DHT22;64115;50.170;8.242;2024-01-30T11:36:51;8.60;99.90
8261;DHT22;64115;50.170;8.242;2024-01-30T11:39:20;8.60;99.90
8261;DHT22;64115;50.170;8.242;2024-01-30T11:41:51;8.40;99.90
8261;DHT22;64115;50.170;8.242;2024-01-30T11:44:19;8.40;99.90
8261;DHT22;64115;50.170;8.242;2024-01-30T11:46:47;8.40;99.90
8261;DHT22;64115;50.170;8.242;2024-01-30T11:49:16;8.30;99.90
8261;DHT22;64115;50.170;8.242;2024-01-30T11:51:44;8.20;99.90
8261;DHT22;64115;50.170;8.242;2024-01-30T11:54:14;8.20;99.90
8261;DHT22;64115;50.170;8.242;2024-01-30T11:56:42;8.20;99.90
8261;DHT22;64115;50.170;8.242;2024-01-30T11:59:11;8.30;99.90
8261;DHT22;64115;50.170;8.242;2024-01-30T12:01:38;8.30;99.90
8261;DHT22;64115;50.170;8.242;2024-01-30T12:04:18;8.50;99.90
8261;DHT22;64115;50.170;8.242;2024-01-30T12:06:45;8.70;99.90
8261;DHT22;64115;50.170;8.242;2024-01-30T12:09:12;8.80;99.90
8261;DHT22;64115;50.170;8.242;2024-01-30T12:11:45;9.00;99.90
8261;DHT22;64115;50.170;8.242;2024-01-30T12:14:14;9.10;99.90
8261;DHT22;64115;50.170;8.242;2024-01-30T12:16:41;9.10;99.90
8261;DHT22;64115;50.170;8.242;2024-01-30T12:19:09;9.20;99.90
8261;DHT22;64115;50.170;8.242;2024-01-30T12:21:37;9.40;99.90
8261;DHT22;64115;50.170;8.242;2024-01-30T12:24:05;9.50;99.90
8261;DHT22;64115;50.170;8.242;2024-01-30T12:26:33;9.70;99.90
8261;DHT22;64115;50.170;8.242;2024-01-30T12:29:00;9.80;99.90
8261;DHT22;64115;50.170;8.242;2024-01-30T12:31:31;9.80;99.90
8261;DHT22;64115;50.170;8.242;2024-01-30T12:33:59;9.80;99.90
8261;DHT22;64115;50.170;8.242;2024-01-30T12:36:28;9.90;99.90
8261;DHT22;64115;50.170;8.242;2024-01-30T12:38:57;10.00;99.90
8261;DHT22;64115;50.170;8.242;2024-01-30T12:41:24;9.90;99.90
8261;DHT22;64115;50.170;8.242;2024-01-30T12:43:54;9.80;99.90
8261;DHT22;64115;50.170;8.242;2024-01-30T12:46:24;9.70;99.90
8261;DHT22;64115;50.170;8.242;2024-01-30T12:48:53;9.80;99.90
8261;DHT22;64115;50.170;8.242;2024-01-30T12:51:21;9.80;99.90
8261;DHT22;64115;50.170;8.242;2024-01-30T12:53:48;9.90;99.90
8261;DHT22;64115;50.170;8.242;2024-01-30T12:56:16;10.00;99.90
8261;DHT22;64115;50.170;8.242;2024-01-30T12:58:43;10.10;99.90
8261;DHT22;64115;50.170;8.242;2024-01-30T13:01:10;10.00;99.90
8261;DHT22;64115;50.170;8.242;2024-01-30T13:03:38;10.00;99.90
8261;DHT22;64115;50.170;8.242;2024-01-30T13:06:06;9.90;99.90
8261;DHT22;64115;50.170;8.242;2024-01-30T13:08:34;9.80;99.90
8261;DHT22;64115;50.170;8.242;2024-01-30T13:11:01;9.70;99.90
8261;DHT22;64115;50.170;8.242;2024-01-30T13:13:28;9.60;99.90
8261;DHT22;64115;50.170;8.242;2024-01-30T13:15:55;9.60;99.90
8261;DHT22;64115;50.170;8.242;2024-01-30T13:18:23;9.50;99.90
8261;DHT22;64115;50.170;8.242;2024-01-30T13:20:50;9.50;99.90
8261;DHT22;64115;50.170;8.242;2024-01-30T13:23:19;9.60;99.90
8261;DHT22;64115;50.170;8.242;2024-01-30T13:25:46;9.70;99.90
8261;DHT22;64115;50.170;8.242;2024-01-30T13:28:13;9.70;99.90
8261;DHT22;64115;50.170;8.242;2024-01-30T13:30:40;9.60;99.90
8261;DHT22;64115;50.170;8.242;2024-01-30T13:33:07;9.60;99.90
8261;DHT22;64115;50.170;8.242;2024-01-30T13:35:35;9.70;99.90
8261;DHT22;64115;50.170;8.242;2024-01-30T13:38:02;9.70;99.90
8261;DHT22;64115;50.170;8.242;2024-01-30T13:40:31;9.60;99.90
8261;DHT22;64115;50.170;8.242;2024-01-30T13:42:58;9.70;99.90
8261;DHT22;64115;50.170;8.242;2024-01-30T13:45:25;9.60;99.90
8261;DHT22;64115;50.170;8.242;2024-01-30T13:47:53;9.60;99.90
8261;DHT22;64115;50.170;8.242;2024-01-30T13:50:20;9.50;99.90
8261;DHT22;64115;50.170;8.242;2024-01-30T13:52:48;9.40;99.90
8261;DHT22;64115;50.170;8.242;2024-01-30T13:55:15;9.30;99.90
8261;DHT22;64115;50.170;8.242;2024-01-30T13:57:43;9.20;99.90
8261;DHT22;64115;50.170;8.242;2024-01-30T14:00:11;9.20;99.90
8261;DHT22;64115;50.170;8.242;2024-01-30T14:02:42;9.20;99.90
8261;DHT22;64115;50.170;8.242;2024-01-30T14:05:09;9.10;99.90
8261;DHT22;64115;50.170;8.242;2024-01-30T14:07:37;8.90;99.90
8261;DHT22;64115;50.170;8.242;2024-01-30T14:10:07;8.80;99.90
8261;DHT22;64115;50.170;8.242;2024-01-30T14:12:34;8.70;99.90
8261;DHT22;64115;50.170;8.242;2024-01-30T14:15:02;8.60;99.90
8261;DHT22;64115;50.170;8.242;2024-01-30T14:17:30;8.60;99.90
8261;DHT22;64115;50.170;8.242;2024-01-30T14:19:57;8.60;99.90
8261;DHT22;64115;50.170;8.242;2024-01-30T14:22:24;8.60;99.90
8261;DHT22;64115;50.170;8.242;2024-01-30T14:24:51;8.60;99.90
8261;DHT22;64115;50.170;8.242;2024-01-30T14:27:18;8.60;99.90
8261;DHT22;64115;50.170;8.242;2024-01-30T14:29:45;8.70;99.90
8261;DHT22;64115;50.170;8.242;2024-01-30T14:32:14;8.60;99.90
8261;DHT22;64115;50.170;8.242;2024-01-30T14:34:41;8.60;99.90
8261;DHT22;64115;50.170;8.242;2024-01-30T14:37:08;8.60;99.90
8261;DHT22;64115;50.170;8.242;2024-01-30T14:39:35;8.60;99.90
8261;DHT22;64115;50.170;8.242;2024-01-30T14:42:16;8.60;99.90
8261;DHT22;64115;50.170;8.242;2024-01-30T14:44:43;8.40;99.90
8261;DHT22;64115;50.170;8.242;2024-01-30T14:47:10;8.30;99.90
8261;DHT22;64115;50.170;8.242;2024-01-30T14:49:40;8.20;99.90
8261;DHT22;64115;50.170;8.242;2024-01-30T14:52:07;8.20;99.90
8261;DHT22;64115;50.170;8.242;2024-01-30T14:54:36;8.10;99.90
8261;DHT22;64115;50.170;8.242;2024-01-30T14:57:03;8.10;99.90
8261;DHT22;64115;50.170;8.242;2024-01-30T14:59:31;8.00;99.90
8261;DHT22;64115;50.170;8.242;2024-01-30T15:02:00;7.90;99.90
8261;DHT22;64115;50.170;8.242;2024-01-30T15:04:27;7.80;99.90
8261;DHT22;64115;50.170;8.242;2024-01-30T15:06:55;7.80;99.90
8261;DHT22;64115;50.170;8.242;2024-01-30T15:09:22;7.80;99.90
8261;DHT22;64115;50.170;8.242;2024-01-30T15:11:52;7.70;99.90
8261;DHT22;64115;50.170;8.242;2024-01-30T15:14:19;7.70;99.90
8261;DHT22;64115;50.170;8.242;2024-01-30T15:16:46;7.70;99.90
8261;DHT22;64115;50.170;8.242;2024-01-30T15:19:13;7.70;99.90
8261;DHT22;64115;50.170;8.242;2024-01-30T15:21:40;7.60;99.90
8261;DHT22;64115;50.170;8.242;2024-01-30T15:24:08;7.60;99.90
8261;DHT22;64115;50.170;8.242;2024-01-30T15:26:38;7.60;99.90
8261;DHT22;64115;50.170;8.242;2024-01-30T15:29:05;7.60;99.90
8261;DHT22;64115;50.170;8.242;2024-01-30T15:31:32;7.60;99.90
8261;DHT22;64115;50.170;8.242;2024-01-30T15:33:59;7.50;99.90
8261;DHT22;64115;50.170;8.242;2024-01-30T15:36:26;7.50;99.90
8261;DHT22;64115;50.170;8.242;2024-01-30T15:38:53;7.50;99.90
8261;DHT22;64115;50.170;8.242;2024-01-30T15:41:22;7.50;99.90
8261;DHT22;64115;50.170;8.242;2024-01-30T15:43:49;7.50;99.90
8261;DHT22;64115;50.170;8.242;2024-01-30T15:46:17;7.50;99.90
8261;DHT22;64115;50.170;8.242;2024-01-30T15:48:44;7.40;99.90
8261;DHT22;64115;50.170;8.242;2024-01-30T15:51:12;7.40;99.90
8261;DHT22;64115;50.170;8.242;2024-01-30T15:53:39;7.40;99.90
8261;DHT22;64115;50.170;8.242;2024-01-30T15:56:07;7.40;99.90
8261;DHT22;64115;50.170;8.242;2024-01-30T15:58:36;7.40;99.90
8261;DHT22;64115;50.170;8.242;2024-01-30T16:01:03;7.40;99.90
8261;DHT22;64115;50.170;8.242;2024-01-30T16:03:30;7.40;99.90